Main page
METAR-TAF:

METAR-TAF

Airports :

Kenneth Kaunda International Airport

Lusaka, Zambia

latitude: 15-19-51S, longitude: 028-27-09E, elevation: 1152 m

Current weather observation

The report was made 2 hours and 52 minutes ago, at 06:00 UTC
Wind 3 kt from the North/Northeast
Temperature 24°C
Humidity 69%
Pressure 1019 hPa
Visibility 10 km or more
no clouds below 1500 m and no cumulonimbus

METAR: FLKK 210600Z 02003KT CAVOK 24/18 Q1019

Time: 10:52 (08:52 UTC)


TAF: missing

Weather observations and forecasts of more than 4000 airports (METAR and TAF reports).

The available stations are represented by yellow and red dots on the map.

Hover mouse over dot to see the name of the station.

Then click to see weather observations and forecasts.

To change the map : click on the green buttons with a black cross to zoom in, on the green button with a dash to zoom out, or on the green arrows for adjacent maps.


METAR-TAF: